createdAt,value
2019-01-23T00:00:01.141Z,88.10
2019-01-23T00:02:27.501Z,87.50
2019-01-23T00:04:53.792Z,88.00
2019-01-23T00:07:20.180Z,88.50
2019-01-23T00:09:46.586Z,88.20
2019-01-23T00:12:12.943Z,88.50
2019-01-23T00:14:39.359Z,88.30
2019-01-23T00:17:05.637Z,88.20
2019-01-23T00:19:31.991Z,88.20
2019-01-23T00:21:58.381Z,88.40
2019-01-23T00:24:24.685Z,88.90
2019-01-23T00:26:51.060Z,88.60
2019-01-23T00:29:17.461Z,88.60
2019-01-23T00:31:43.747Z,88.10
2019-01-23T00:34:10.145Z,88.30
2019-01-23T00:36:36.658Z,88.30
2019-01-23T00:39:05.845Z,88.10
2019-01-23T00:41:32.224Z,87.70
2019-01-23T00:43:58.527Z,87.40
2019-01-23T00:46:24.776Z,87.40
2019-01-23T00:48:51.984Z,87.60
2019-01-23T00:51:18.337Z,87.80
2019-01-23T00:53:44.625Z,87.80
2019-01-23T00:56:10.982Z,87.60
2019-01-23T00:58:37.354Z,88.10
2019-01-23T01:01:04.249Z,88.30
2019-01-23T01:03:30.605Z,88.40
2019-01-23T01:05:56.992Z,88.30
2019-01-23T01:08:23.381Z,88.30
2019-01-23T01:10:49.757Z,88.20
2019-01-23T01:13:16.149Z,88.10
2019-01-23T01:15:42.632Z,88.40
2019-01-23T01:18:09.106Z,88.70
2019-01-23T01:20:35.597Z,88.80
2019-01-23T01:23:01.956Z,88.50
2019-01-23T01:25:28.443Z,88.60
2019-01-23T01:27:54.832Z,88.70
2019-01-23T01:30:23.233Z,88.90
2019-01-23T01:32:49.716Z,89.30
2019-01-23T01:35:16.089Z,89.40
2019-01-23T01:37:44.354Z,89.60
2019-01-23T01:40:13.061Z,89.60
2019-01-23T01:42:39.441Z,89.70
2019-01-23T01:45:07.520Z,89.70
2019-01-23T01:47:33.918Z,89.70
2019-01-23T01:50:00.322Z,89.80
2019-01-23T01:52:26.591Z,89.80
2019-01-23T01:54:53.381Z,89.80
2019-01-23T01:57:19.855Z,89.70
2019-01-23T01:59:46.146Z,89.60
2019-01-23T02:02:12.417Z,89.70
2019-01-23T02:04:38.763Z,89.50
2019-01-23T02:07:05.083Z,89.50
2019-01-23T02:09:35.471Z,89.60
2019-01-23T02:11:59.820Z,89.60
2019-01-23T02:14:26.210Z,89.70
2019-01-23T02:16:52.488Z,89.60
2019-01-23T02:19:18.760Z,89.50
2019-01-23T02:21:45.132Z,89.60
2019-01-23T02:24:11.699Z,89.50
2019-01-23T02:26:38.113Z,89.40
2019-01-23T02:29:09.433Z,89.50
2019-01-23T02:31:32.760Z,89.50
2019-01-23T02:33:59.136Z,89.70
2019-01-23T02:36:25.522Z,89.50
2019-01-23T02:38:51.909Z,89.70
2019-01-23T02:41:18.279Z,89.70
2019-01-23T02:43:44.527Z,90.10
2019-01-23T02:46:11.000Z,89.80
2019-01-23T02:48:37.248Z,89.80
2019-01-23T02:51:03.771Z,89.70
2019-01-23T02:53:30.024Z,89.70
2019-01-23T02:55:56.296Z,89.50
2019-01-23T02:58:23.613Z,88.50
2019-01-23T03:00:49.880Z,88.20
2019-01-23T03:03:16.439Z,87.90
2019-01-23T03:05:42.838Z,88.10
2019-01-23T03:08:09.119Z,88.60
2019-01-23T03:10:35.645Z,88.60
2019-01-23T03:13:02.130Z,88.40
2019-01-23T03:15:28.815Z,88.50
2019-01-23T03:17:55.114Z,88.30
2019-01-23T03:20:21.509Z,88.80
2019-01-23T03:22:48.072Z,88.40
2019-01-23T03:25:14.670Z,88.70
2019-01-23T03:27:41.187Z,89.00
2019-01-23T03:30:13.379Z,89.50
2019-01-23T03:32:39.674Z,89.50
2019-01-23T03:35:08.149Z,89.60
2019-01-23T03:37:34.417Z,89.80
2019-01-23T03:40:00.715Z,89.80
2019-01-23T03:42:27.280Z,90.00
2019-01-23T03:44:53.711Z,89.90
2019-01-23T03:47:20.260Z,89.70
2019-01-23T03:49:47.028Z,89.60
2019-01-23T03:52:13.442Z,89.80
2019-01-23T03:54:39.803Z,89.80
2019-01-23T03:57:06.505Z,89.80
2019-01-23T03:59:32.992Z,89.80
2019-01-23T04:01:59.367Z,90.00
2019-01-23T04:04:26.094Z,90.00
2019-01-23T04:06:52.482Z,90.00
2019-01-23T04:09:18.779Z,90.10
2019-01-23T04:11:45.084Z,90.10
2019-01-23T04:14:11.440Z,90.10
2019-01-23T04:16:37.805Z,90.10
2019-01-23T04:19:04.115Z,90.10
2019-01-23T04:21:30.488Z,90.00
2019-01-23T04:23:56.857Z,90.00
2019-01-23T04:26:23.245Z,89.90
2019-01-23T04:28:49.544Z,89.90
2019-01-23T04:31:15.897Z,89.70
2019-01-23T04:33:42.248Z,89.80
2019-01-23T04:36:08.657Z,89.50
2019-01-23T04:38:34.926Z,89.00
2019-01-23T04:41:01.196Z,88.80
2019-01-23T04:43:27.506Z,88.90
2019-01-23T04:45:53.863Z,89.10
2019-01-23T04:48:20.230Z,89.20
2019-01-23T04:51:04.955Z,89.10
2019-01-23T04:53:33.128Z,88.80
2019-01-23T04:56:00.507Z,88.20
2019-01-23T04:58:26.894Z,88.70
2019-01-23T05:00:53.250Z,88.70
2019-01-23T05:03:19.659Z,89.10
2019-01-23T05:05:45.971Z,89.50
2019-01-23T05:08:12.292Z,89.20
2019-01-23T05:10:38.626Z,89.10
2019-01-23T05:13:05.092Z,89.30
2019-01-23T05:15:31.506Z,89.70
2019-01-23T05:17:58.746Z,89.60
2019-01-23T05:20:25.128Z,89.60
2019-01-23T05:22:51.461Z,89.50
2019-01-23T05:25:17.878Z,89.60
2019-01-23T05:27:46.683Z,89.30
2019-01-23T05:30:16.368Z,89.40
2019-01-23T05:32:42.697Z,89.40
2019-01-23T05:35:09.316Z,89.50
2019-01-23T05:37:35.700Z,89.50
2019-01-23T05:40:05.189Z,89.50
2019-01-23T05:42:31.484Z,89.30
2019-01-23T05:44:57.857Z,89.80
2019-01-23T05:47:24.145Z,89.20
2019-01-23T05:49:50.752Z,89.30
2019-01-23T05:52:16.992Z,89.50
2019-01-23T05:54:43.296Z,89.30
2019-01-23T05:57:09.631Z,89.20
2019-01-23T05:59:35.922Z,89.10
2019-01-23T06:02:02.371Z,89.00
2019-01-23T06:04:28.665Z,88.60
2019-01-23T06:06:54.940Z,88.80
2019-01-23T06:09:22.788Z,89.00
2019-01-23T06:11:49.378Z,88.60
2019-01-23T06:14:15.651Z,88.20
2019-01-23T06:16:41.923Z,88.10
2019-01-23T06:19:08.176Z,88.30
2019-01-23T06:21:34.452Z,88.50
2019-01-23T06:24:00.764Z,88.80
2019-01-23T06:26:27.048Z,87.90
2019-01-23T06:28:53.422Z,87.30
2019-01-23T06:31:20.925Z,87.20
2019-01-23T06:33:47.213Z,86.80
2019-01-23T06:36:13.480Z,87.20
2019-01-23T06:38:39.809Z,86.80
2019-01-23T06:41:06.107Z,87.20
2019-01-23T06:43:32.486Z,87.60
2019-01-23T06:45:58.880Z,87.80
2019-01-23T06:48:25.244Z,87.40
2019-01-23T06:50:51.628Z,88.10
2019-01-23T06:53:17.916Z,87.60
2019-01-23T06:55:44.397Z,85.90
2019-01-23T06:58:10.707Z,86.00
2019-01-23T07:00:36.985Z,86.90
2019-01-23T07:03:03.472Z,87.00
2019-01-23T07:05:29.890Z,87.50
2019-01-23T07:07:56.333Z,87.90
2019-01-23T07:10:23.294Z,87.60
2019-01-23T07:12:49.851Z,87.70
2019-01-23T07:15:16.833Z,87.90
2019-01-23T07:17:43.058Z,87.90
2019-01-23T07:20:12.951Z,88.10
2019-01-23T07:22:39.337Z,87.90
2019-01-23T07:25:08.018Z,87.90
2019-01-23T07:27:34.577Z,87.90
2019-01-23T07:30:00.868Z,87.70
2019-01-23T07:32:27.306Z,87.40
2019-01-23T07:34:53.727Z,86.90
2019-01-23T07:37:20.092Z,86.70
2019-01-23T07:39:46.472Z,86.80
2019-01-23T07:42:12.901Z,86.40
2019-01-23T07:44:39.269Z,86.40
2019-01-23T07:47:05.743Z,86.80
2019-01-23T07:49:32.037Z,87.00
2019-01-23T07:51:58.431Z,87.10
2019-01-23T07:54:24.818Z,86.70
2019-01-23T07:56:51.177Z,86.30
2019-01-23T07:59:17.505Z,85.80
2019-01-23T08:01:43.857Z,85.40
2019-01-23T08:04:10.344Z,85.70
2019-01-23T08:06:36.660Z,85.40
2019-01-23T08:09:06.045Z,85.60
2019-01-23T08:11:32.512Z,85.40
2019-01-23T08:13:58.864Z,84.80
2019-01-23T08:16:25.438Z,85.50
2019-01-23T08:18:51.764Z,85.80
2019-01-23T08:21:18.113Z,85.60
2019-01-23T08:23:44.395Z,84.20
2019-01-23T08:26:10.788Z,84.50
2019-01-23T08:28:37.257Z,85.20
2019-01-23T08:31:03.872Z,85.10
2019-01-23T08:33:30.245Z,85.20
2019-01-23T08:35:56.487Z,85.20
2019-01-23T08:38:22.889Z,84.90
2019-01-23T08:40:49.221Z,83.20
2019-01-23T08:43:15.695Z,84.00
2019-01-23T08:45:42.115Z,82.70
2019-01-23T08:48:08.617Z,83.50
2019-01-23T08:50:56.664Z,84.50
2019-01-23T08:53:23.043Z,85.10
2019-01-23T08:55:53.552Z,84.90
2019-01-23T08:58:17.660Z,84.80
2019-01-23T09:00:46.038Z,84.20
2019-01-23T09:03:12.276Z,84.80
2019-01-23T09:05:38.719Z,85.60
2019-01-23T09:08:05.220Z,85.10
2019-01-23T09:10:31.781Z,85.00
2019-01-23T09:12:58.092Z,86.10
2019-01-23T09:15:24.500Z,86.60
2019-01-23T09:17:50.883Z,87.10
2019-01-23T09:20:18.693Z,86.80
2019-01-23T09:22:45.151Z,87.40
2019-01-23T09:25:17.764Z,87.50
2019-01-23T09:27:44.698Z,88.10
2019-01-23T09:30:29.519Z,88.40
2019-01-23T09:33:25.623Z,88.40
2019-01-23T09:36:12.431Z,88.30
2019-01-23T09:39:00.808Z,87.90
2019-01-23T09:41:53.813Z,87.60
2019-01-23T09:44:55.224Z,87.50
2019-01-23T09:47:28.032Z,88.00
2019-01-23T09:50:01.099Z,87.70
2019-01-23T09:52:34.112Z,87.30
2019-01-23T09:55:00.464Z,87.30
2019-01-23T09:57:26.948Z,87.40
2019-01-23T09:59:53.307Z,87.90
2019-01-23T10:02:19.746Z,88.30
2019-01-23T10:04:46.009Z,88.70
2019-01-23T10:07:12.318Z,88.50
2019-01-23T10:09:38.590Z,87.50
2019-01-23T10:12:05.077Z,87.30
2019-01-23T10:14:31.468Z,87.00
2019-01-23T10:16:57.874Z,86.90
2019-01-23T10:19:24.148Z,87.50
2019-01-23T10:21:50.542Z,87.60
2019-01-23T10:24:16.832Z,87.60
2019-01-23T10:26:43.411Z,86.10
2019-01-23T10:29:09.740Z,86.50
2019-01-23T10:31:36.036Z,87.00
2019-01-23T10:34:02.892Z,87.00
2019-01-23T10:36:29.294Z,86.20
2019-01-23T10:38:55.560Z,86.60
2019-01-23T10:41:22.040Z,86.50
2019-01-23T10:43:48.552Z,86.60
2019-01-23T10:46:14.884Z,86.40
2019-01-23T10:48:41.286Z,86.50
2019-01-23T10:51:07.789Z,86.70
2019-01-23T10:53:34.253Z,86.50
2019-01-23T10:56:00.620Z,86.50
2019-01-23T10:58:27.049Z,86.50
2019-01-23T11:00:53.415Z,86.00
2019-01-23T11:03:19.879Z,85.90
2019-01-23T11:05:46.365Z,85.00
2019-01-23T11:08:12.651Z,84.90
2019-01-23T11:10:39.122Z,84.00
2019-01-23T11:13:05.617Z,84.30
2019-01-23T11:15:31.992Z,84.30
2019-01-23T11:17:58.357Z,83.20
2019-01-23T11:20:24.850Z,82.80
2019-01-23T11:22:51.313Z,83.70
2019-01-23T11:25:17.796Z,84.00
2019-01-23T11:27:44.751Z,83.50
2019-01-23T11:30:20.033Z,83.40
2019-01-23T11:32:46.501Z,82.20
2019-01-23T11:35:13.456Z,79.70
2019-01-23T11:37:39.945Z,82.00
2019-01-23T11:40:10.057Z,82.30
2019-01-23T11:42:36.440Z,83.50
2019-01-23T11:45:06.109Z,83.40
2019-01-23T11:47:32.593Z,83.20
2019-01-23T11:49:58.888Z,83.20
2019-01-23T11:52:25.240Z,81.20
2019-01-23T11:54:51.540Z,81.90
2019-01-23T11:57:17.942Z,82.70
2019-01-23T11:59:44.172Z,83.50
2019-01-23T12:02:10.754Z,83.70
2019-01-23T12:04:37.129Z,83.60
2019-01-23T12:07:03.628Z,83.20
2019-01-23T12:09:30.001Z,83.20
2019-01-23T12:11:56.472Z,82.60
2019-01-23T12:14:22.884Z,82.60
2019-01-23T12:16:49.337Z,82.00
2019-01-23T12:19:15.892Z,82.20
2019-01-23T12:21:42.173Z,82.30
2019-01-23T12:24:08.626Z,81.50
2019-01-23T12:26:35.048Z,82.50
2019-01-23T12:29:01.530Z,82.40
2019-01-23T12:31:34.667Z,82.20
2019-01-23T12:33:55.896Z,81.70
2019-01-23T12:36:22.298Z,81.90
2019-01-23T12:38:48.651Z,80.90
2019-01-23T12:41:15.144Z,81.30
2019-01-23T12:43:41.437Z,79.60
2019-01-23T12:46:07.884Z,80.90
2019-01-23T12:48:34.308Z,81.70
2019-01-23T12:51:00.781Z,81.70
2019-01-23T12:53:27.262Z,81.20
2019-01-23T12:55:53.760Z,82.40
2019-01-23T12:58:20.242Z,79.60
2019-01-23T13:00:46.626Z,78.80
2019-01-23T13:03:12.981Z,79.00
2019-01-23T13:05:39.243Z,79.00
2019-01-23T13:08:05.632Z,78.80
2019-01-23T13:10:32.192Z,78.40
2019-01-23T13:12:58.676Z,79.60
2019-01-23T13:15:26.587Z,79.90
2019-01-23T13:17:53.966Z,79.90
2019-01-23T13:20:22.060Z,80.30
2019-01-23T13:22:48.557Z,80.60
2019-01-23T13:25:16.921Z,81.00
2019-01-23T13:27:43.492Z,80.20
2019-01-23T13:30:12.869Z,80.00
2019-01-23T13:32:39.347Z,79.90
2019-01-23T13:35:09.402Z,80.60
2019-01-23T13:37:35.688Z,81.10
2019-01-23T13:40:05.155Z,81.10
2019-01-23T13:42:32.642Z,81.00
2019-01-23T13:44:58.911Z,81.10
2019-01-23T13:47:25.401Z,81.50
2019-01-23T13:49:51.893Z,81.90
2019-01-23T13:52:18.360Z,82.30
2019-01-23T13:54:44.824Z,82.70
2019-01-23T13:57:11.242Z,82.90
2019-01-23T13:59:37.500Z,83.00
2019-01-23T14:02:04.005Z,83.40
2019-01-23T14:04:30.404Z,83.80
2019-01-23T14:06:56.684Z,84.10
2019-01-23T14:09:23.052Z,84.30
2019-01-23T14:11:49.444Z,84.50
2019-01-23T14:14:15.825Z,84.60
2019-01-23T14:16:42.389Z,84.80
2019-01-23T14:19:08.816Z,85.00
2019-01-23T14:21:35.101Z,85.10
2019-01-23T14:24:01.467Z,85.20
2019-01-23T14:26:27.877Z,85.50
2019-01-23T14:28:54.338Z,85.60
2019-01-23T14:31:20.596Z,85.90
2019-01-23T14:33:46.893Z,86.10
2019-01-23T14:36:13.152Z,86.20
2019-01-23T14:38:39.544Z,86.20
2019-01-23T14:41:05.809Z,86.30
2019-01-23T14:43:32.191Z,86.40
2019-01-23T14:45:58.656Z,86.70
2019-01-23T14:48:25.160Z,86.90
2019-01-23T14:50:51.635Z,87.10
2019-01-23T14:53:18.026Z,87.10
2019-01-23T14:55:44.332Z,87.20
2019-01-23T14:58:10.820Z,87.40
2019-01-23T15:00:37.301Z,87.60
2019-01-23T15:03:04.093Z,87.70
2019-01-23T15:05:30.435Z,87.90
2019-01-23T15:07:56.904Z,87.90
2019-01-23T15:10:28.454Z,87.80
2019-01-23T15:12:55.391Z,87.40
2019-01-23T15:15:21.761Z,87.20
2019-01-23T15:17:48.253Z,87.40
2019-01-23T15:20:19.797Z,87.80
2019-01-23T15:22:46.157Z,88.00
2019-01-23T15:25:13.096Z,88.00
2019-01-23T15:27:39.333Z,88.10
2019-01-23T15:30:09.435Z,88.20
2019-01-23T15:32:35.976Z,88.20
2019-01-23T15:35:04.832Z,88.20
2019-01-23T15:37:31.136Z,88.20
2019-01-23T15:39:57.387Z,88.40
2019-01-23T15:42:23.645Z,88.20
2019-01-23T15:44:50.065Z,87.90
2019-01-23T15:47:16.430Z,87.80
2019-01-23T15:49:42.700Z,88.60
2019-01-23T15:52:09.053Z,87.90
2019-01-23T15:54:35.342Z,87.90
2019-01-23T15:57:01.589Z,88.30
2019-01-23T15:59:27.865Z,88.60
2019-01-23T16:01:54.358Z,88.70
2019-01-23T16:04:20.722Z,88.90
2019-01-23T16:06:46.956Z,89.00
2019-01-23T16:09:13.537Z,89.00
2019-01-23T16:11:40.031Z,89.20
2019-01-23T16:14:06.383Z,89.50
2019-01-23T16:16:32.773Z,89.50
2019-01-23T16:18:59.152Z,89.40
2019-01-23T16:21:25.494Z,89.90
2019-01-23T16:23:51.790Z,90.00
2019-01-23T16:26:18.152Z,90.00
2019-01-23T16:28:44.424Z,90.40
2019-01-23T16:31:11.671Z,90.20
2019-01-23T16:33:37.996Z,90.30
2019-01-23T16:36:04.457Z,90.40
2019-01-23T16:38:30.832Z,90.50
2019-01-23T16:40:57.093Z,90.70
2019-01-23T16:43:23.489Z,90.50
2019-01-23T16:45:49.841Z,90.60
2019-01-23T16:48:16.110Z,90.70
2019-01-23T16:50:42.595Z,90.70
2019-01-23T16:53:09.064Z,90.70
2019-01-23T16:55:35.737Z,90.90
2019-01-23T16:58:03.632Z,90.90
2019-01-23T17:00:30.089Z,91.00
2019-01-23T17:02:57.489Z,91.10
2019-01-23T17:05:26.669Z,91.30
2019-01-23T17:07:53.839Z,91.20
2019-01-23T17:10:22.306Z,91.20
2019-01-23T17:12:48.680Z,91.30
2019-01-23T17:15:15.363Z,91.40
2019-01-23T17:17:41.855Z,91.60
2019-01-23T17:20:12.773Z,91.70
2019-01-23T17:22:39.250Z,91.50
2019-01-23T17:25:08.080Z,91.40
2019-01-23T17:27:34.483Z,91.50
2019-01-23T17:30:00.988Z,91.60
2019-01-23T17:32:27.468Z,91.70
2019-01-23T17:34:53.825Z,91.70
2019-01-23T17:37:20.259Z,91.70
2019-01-23T17:39:46.662Z,91.70
2019-01-23T17:42:12.953Z,91.70
2019-01-23T17:44:39.211Z,91.70
2019-01-23T17:47:05.689Z,91.50
2019-01-23T17:49:32.071Z,91.60
2019-01-23T17:51:58.331Z,91.70
2019-01-23T17:54:24.728Z,91.60
2019-01-23T17:56:50.980Z,91.70
2019-01-23T17:59:17.519Z,91.70
2019-01-23T18:01:43.896Z,91.60
2019-01-23T18:04:10.383Z,91.70
2019-01-23T18:06:36.764Z,91.60
2019-01-23T18:09:06.684Z,91.60
2019-01-23T18:11:32.967Z,91.70
2019-01-23T18:13:59.323Z,91.70
2019-01-23T18:16:25.925Z,91.60
2019-01-23T18:18:52.621Z,91.60
2019-01-23T18:21:19.304Z,91.60
2019-01-23T18:23:45.668Z,91.70
2019-01-23T18:26:12.008Z,91.70
2019-01-23T18:28:38.375Z,91.70
2019-01-23T18:31:14.583Z,91.70
2019-01-23T18:33:54.552Z,91.90
2019-01-23T18:36:41.242Z,91.90
2019-01-23T18:39:17.148Z,91.90
2019-01-23T18:41:53.234Z,91.90
2019-01-23T18:44:32.196Z,92.00
2019-01-23T18:47:12.310Z,92.00
2019-01-23T18:49:53.985Z,92.00
2019-01-23T18:52:20.255Z,92.10
2019-01-23T18:54:46.520Z,92.10
2019-01-23T18:57:27.749Z,92.20
2019-01-23T18:59:59.147Z,92.50
2019-01-23T19:02:23.027Z,92.20
2019-01-23T19:04:49.508Z,92.20
2019-01-23T19:07:16.203Z,92.20
2019-01-23T19:09:42.671Z,92.30
2019-01-23T19:12:09.279Z,92.30
2019-01-23T19:14:35.789Z,92.30
2019-01-23T19:17:02.559Z,92.30
2019-01-23T19:19:28.923Z,92.30
2019-01-23T19:21:55.418Z,92.30
2019-01-23T19:24:21.905Z,92.30
2019-01-23T19:26:48.292Z,92.30
2019-01-23T19:29:14.799Z,92.30
2019-01-23T19:31:41.202Z,92.70
2019-01-23T19:34:07.825Z,92.30
2019-01-23T19:36:34.186Z,92.30
2019-01-23T19:39:00.501Z,92.30
2019-01-23T19:41:27.029Z,92.30
2019-01-23T19:43:53.428Z,92.30
2019-01-23T19:46:19.837Z,92.30
2019-01-23T19:48:46.331Z,92.30
2019-01-23T19:51:12.712Z,92.30
2019-01-23T19:53:38.985Z,92.40
2019-01-23T19:56:05.368Z,92.30
2019-01-23T19:58:31.649Z,92.40
2019-01-23T20:00:58.058Z,92.30
2019-01-23T20:03:24.499Z,92.30
2019-01-23T20:05:50.885Z,92.30
2019-01-23T20:08:17.248Z,92.40
2019-01-23T20:10:43.567Z,92.40
2019-01-23T20:13:10.110Z,92.40
2019-01-23T20:15:36.483Z,92.40
2019-01-23T20:18:03.579Z,92.40
2019-01-23T20:20:30.139Z,92.30
2019-01-23T20:22:56.527Z,92.30
2019-01-23T20:25:24.751Z,92.30
2019-01-23T20:27:51.419Z,92.40
2019-01-23T20:30:21.415Z,92.40
2019-01-23T20:32:47.817Z,92.40
2019-01-23T20:35:14.230Z,92.30
2019-01-23T20:37:43.561Z,92.40
2019-01-23T20:40:11.227Z,92.40
2019-01-23T20:42:37.800Z,92.50
2019-01-23T20:45:07.934Z,92.50
2019-01-23T20:47:34.404Z,92.50
2019-01-23T20:50:00.884Z,92.50
2019-01-23T20:52:27.184Z,92.50
2019-01-23T20:54:53.540Z,92.50
2019-01-23T20:57:19.889Z,92.50
2019-01-23T20:59:46.376Z,92.50
2019-01-23T21:02:12.746Z,92.60
2019-01-23T21:04:39.034Z,92.60
2019-01-23T21:07:05.503Z,92.60
2019-01-23T21:09:31.854Z,92.60
2019-01-23T21:11:58.243Z,92.50
2019-01-23T21:14:24.684Z,92.60
2019-01-23T21:16:50.996Z,92.60
2019-01-23T21:19:17.335Z,92.60
2019-01-23T21:21:43.887Z,92.70
2019-01-23T21:24:10.204Z,92.70
2019-01-23T21:26:36.476Z,92.70
2019-01-23T21:29:03.299Z,92.70
2019-01-23T21:31:29.560Z,92.60
2019-01-23T21:33:55.835Z,92.60
2019-01-23T21:36:22.253Z,92.60
2019-01-23T21:38:48.526Z,92.60
2019-01-23T21:41:14.918Z,92.70
2019-01-23T21:43:41.258Z,92.70
2019-01-23T21:46:07.616Z,92.80
2019-01-23T21:48:34.039Z,92.80
2019-01-23T21:51:00.505Z,92.70
2019-01-23T21:53:26.988Z,92.70
2019-01-23T21:55:53.408Z,92.60
2019-01-23T21:58:19.765Z,92.40
2019-01-23T22:00:46.176Z,92.30
2019-01-23T22:03:12.748Z,92.20
2019-01-23T22:05:39.256Z,92.20
2019-01-23T22:08:06.833Z,92.10
2019-01-23T22:10:33.152Z,92.10
2019-01-23T22:12:59.423Z,92.00
2019-01-23T22:15:27.903Z,91.90
2019-01-23T22:17:54.235Z,91.90
2019-01-23T22:20:20.804Z,91.90
2019-01-23T22:22:47.078Z,91.90
2019-01-23T22:25:15.804Z,91.80
2019-01-23T22:27:42.115Z,91.80
2019-01-23T22:30:21.124Z,91.80
2019-01-23T22:32:47.685Z,91.70
2019-01-23T22:35:14.500Z,91.60
2019-01-23T22:37:40.888Z,91.70
2019-01-23T22:40:10.336Z,91.70
2019-01-23T22:42:36.844Z,91.70
2019-01-23T22:45:07.065Z,91.70
2019-01-23T22:47:33.400Z,91.70
2019-01-23T22:49:59.693Z,91.70
2019-01-23T22:52:26.047Z,91.60
2019-01-23T22:54:52.341Z,91.70
2019-01-23T22:57:18.736Z,91.70
2019-01-23T22:59:45.018Z,91.70
2019-01-23T23:02:11.413Z,91.70
2019-01-23T23:04:37.705Z,91.70
2019-01-23T23:07:04.245Z,91.70
2019-01-23T23:09:30.566Z,91.60
2019-01-23T23:11:56.915Z,91.60
2019-01-23T23:14:23.229Z,91.60
2019-01-23T23:16:49.745Z,91.60
2019-01-23T23:19:16.119Z,91.50
2019-01-23T23:21:42.508Z,91.50
2019-01-23T23:24:08.911Z,91.30
2019-01-23T23:26:35.276Z,91.40
2019-01-23T23:29:01.765Z,91.40
2019-01-23T23:31:28.257Z,91.40
2019-01-23T23:33:54.594Z,91.40
2019-01-23T23:36:20.999Z,91.40
2019-01-23T23:38:48.137Z,91.50
2019-01-23T23:41:14.515Z,91.50
2019-01-23T23:43:40.895Z,91.50
2019-01-23T23:46:07.292Z,91.40
2019-01-23T23:48:33.650Z,91.50
2019-01-23T23:51:00.167Z,91.50
2019-01-23T23:53:26.756Z,91.50
2019-01-23T23:55:53.215Z,91.60
2019-01-23T23:58:19.584Z,91.60
